sensor_id;sensor_type;location;lat;lon;timestamp;pressure;altitude;pressure_sealevel;temperature;humidity
49040;BME280;36811;49.732;13.402;2023-02-22T00:01:13;97861.66;;;9.68;79.98
49040;BME280;36811;49.732;13.402;2023-02-22T00:03:57;97864.09;;;9.75;79.48
49040;BME280;36811;49.732;13.402;2023-02-22T00:06:23;97866.59;;;9.81;79.75
49040;BME280;36811;49.732;13.402;2023-02-22T00:08:49;97871.91;;;9.81;79.86
49040;BME280;36811;49.732;13.402;2023-02-22T00:11:17;97865.53;;;9.82;79.50
49040;BME280;36811;49.732;13.402;2023-02-22T00:13:45;97866.59;;;9.81;79.29
49040;BME280;36811;49.732;13.402;2023-02-22T00:16:16;97867.69;;;9.85;79.80
49040;BME280;36811;49.732;13.402;2023-02-22T00:18:43;97870.41;;;9.90;79.69
49040;BME280;36811;49.732;13.402;2023-02-22T00:21:11;97857.94;;;9.91;79.20
49040;BME280;36811;49.732;13.402;2023-02-22T00:23:40;97857.66;;;9.92;79.53
49040;BME280;36811;49.732;13.402;2023-02-22T00:26:13;97861.88;;;9.88;79.50
49040;BME280;36811;49.732;13.402;2023-02-22T00:28:47;97867.19;;;9.88;79.80
49040;BME280;36811;49.732;13.402;2023-02-22T00:31:13;97864.59;;;9.93;79.71
49040;BME280;36811;49.732;13.402;2023-02-22T00:33:39;97860.88;;;9.94;79.52
49040;BME280;36811;49.732;13.402;2023-02-22T00:36:06;97857.50;;;9.77;79.78
49040;BME280;36811;49.732;13.402;2023-02-22T00:38:32;97867.56;;;9.75;80.18
49040;BME280;36811;49.732;13.402;2023-02-22T00:40:57;97854.09;;;9.82;80.10
49040;BME280;36811;49.732;13.402;2023-02-22T00:43:23;97857.13;;;9.90;79.88
49040;BME280;36811;49.732;13.402;2023-02-22T00:45:49;97851.19;;;9.83;80.09
49040;BME280;36811;49.732;13.402;2023-02-22T00:48:15;97849.59;;;9.82;79.76
49040;BME280;36811;49.732;13.402;2023-02-22T00:50:41;97853.44;;;9.70;79.70
49040;BME280;36811;49.732;13.402;2023-02-22T00:53:07;97848.69;;;9.50;81.38
49040;BME280;36811;49.732;13.402;2023-02-22T00:55:36;97850.16;;;9.41;81.24
49040;BME280;36811;49.732;13.402;2023-02-22T00:58:03;97849.09;;;9.42;81.56
49040;BME280;36811;49.732;13.402;2023-02-22T01:00:40;97851.41;;;9.55;81.41
49040;BME280;36811;49.732;13.402;2023-02-22T01:03:08;97850.41;;;9.61;81.32
49040;BME280;36811;49.732;13.402;2023-02-22T01:05:35;97847.13;;;9.54;81.47
49040;BME280;36811;49.732;13.402;2023-02-22T01:08:04;97856.44;;;9.56;81.14
49040;BME280;36811;49.732;13.402;2023-02-22T01:10:31;97847.88;;;9.71;80.79
49040;BME280;36811;49.732;13.402;2023-02-22T01:12:58;97848.50;;;9.78;80.04
49040;BME280;36811;49.732;13.402;2023-02-22T01:15:27;97846.13;;;9.82;79.99
49040;BME280;36811;49.732;13.402;2023-02-22T01:17:55;97845.56;;;9.80;79.64
49040;BME280;36811;49.732;13.402;2023-02-22T01:20:23;97839.97;;;9.76;80.21
49040;BME280;36811;49.732;13.402;2023-02-22T01:22:53;97838.41;;;9.80;79.51
49040;BME280;36811;49.732;13.402;2023-02-22T01:25:21;97842.69;;;9.81;79.78
49040;BME280;36811;49.732;13.402;2023-02-22T01:27:48;97837.53;;;9.75;79.86
49040;BME280;36811;49.732;13.402;2023-02-22T01:30:16;97831.44;;;9.74;80.28
49040;BME280;36811;49.732;13.402;2023-02-22T01:32:43;97830.13;;;9.77;80.20
49040;BME280;36811;49.732;13.402;2023-02-22T01:35:12;97827.41;;;9.72;79.91
49040;BME280;36811;49.732;13.402;2023-02-22T01:37:40;97825.06;;;9.75;80.56
49040;BME280;36811;49.732;13.402;2023-02-22T01:40:08;97828.81;;;9.79;79.99
49040;BME280;36811;49.732;13.402;2023-02-22T01:42:35;97821.59;;;9.75;79.95
49040;BME280;36811;49.732;13.402;2023-02-22T01:48:08;97825.56;;;9.72;80.43
49040;BME280;36811;49.732;13.402;2023-02-22T01:50:40;97825.50;;;9.67;80.13
49040;BME280;36811;49.732;13.402;2023-02-22T01:53:08;97825.44;;;9.62;81.02
49040;BME280;36811;49.732;13.402;2023-02-22T01:55:35;97828.47;;;9.71;80.39
49040;BME280;36811;49.732;13.402;2023-02-22T01:58:02;97816.00;;;9.71;80.26
49040;BME280;36811;49.732;13.402;2023-02-22T02:00:29;97816.94;;;9.60;80.56
49040;BME280;36811;49.732;13.402;2023-02-22T02:03:02;97819.97;;;9.47;80.95
49040;BME280;36811;49.732;13.402;2023-02-22T02:05:32;97815.38;;;9.42;81.40
49040;BME280;36811;49.732;13.402;2023-02-22T02:08:07;97813.84;;;9.46;81.08
49040;BME280;36811;49.732;13.402;2023-02-22T02:10:39;97812.84;;;9.52;80.50
49040;BME280;36811;49.732;13.402;2023-02-22T02:13:06;97811.00;;;9.53;80.72
49040;BME280;36811;49.732;13.402;2023-02-22T02:15:33;97802.78;;;9.54;81.05
49040;BME280;36811;49.732;13.402;2023-02-22T02:18:07;97808.66;;;9.56;81.25
49040;BME280;36811;49.732;13.402;2023-02-22T02:37:24;97788.09;;;9.25;81.90
49040;BME280;36811;49.732;13.402;2023-02-22T02:40:01;97788.72;;;9.32;82.27
49040;BME280;36811;49.732;13.402;2023-02-22T02:42:41;97791.13;;;9.34;81.93
49040;BME280;36811;49.732;13.402;2023-02-22T02:45:17;97783.69;;;9.31;82.39
49040;BME280;36811;49.732;13.402;2023-02-22T02:47:48;97783.97;;;9.34;82.38
49040;BME280;36811;49.732;13.402;2023-02-22T02:50:33;97785.31;;;9.37;82.57
49040;BME280;36811;49.732;13.402;2023-02-22T02:53:04;97786.69;;;9.39;82.17
49040;BME280;36811;49.732;13.402;2023-02-22T02:55:33;97777.19;;;9.43;82.29
49040;BME280;36811;49.732;13.402;2023-02-22T02:58:05;97781.69;;;9.43;81.97
49040;BME280;36811;49.732;13.402;2023-02-22T03:00:38;97784.16;;;9.28;82.56
49040;BME280;36811;49.732;13.402;2023-02-22T03:11:41;97777.34;;;9.37;81.94
49040;BME280;36811;49.732;13.402;2023-02-22T03:14:22;97781.09;;;9.36;81.76
49040;BME280;36811;49.732;13.402;2023-02-22T03:17:02;97777.13;;;9.38;82.33
49040;BME280;36811;49.732;13.402;2023-02-22T03:19:37;97776.25;;;9.33;82.72
49040;BME280;36811;49.732;13.402;2023-02-22T03:22:17;97771.94;;;9.27;82.86
49040;BME280;36811;49.732;13.402;2023-02-22T03:24:58;97777.56;;;9.30;82.19
49040;BME280;36811;49.732;13.402;2023-02-22T03:27:46;97772.00;;;9.32;82.07
49040;BME280;36811;49.732;13.402;2023-02-22T03:30:15;97769.03;;;9.28;82.29
49040;BME280;36811;49.732;13.402;2023-02-22T03:32:46;97768.19;;;9.23;82.09
49040;BME280;36811;49.732;13.402;2023-02-22T03:35:20;97768.22;;;9.06;83.19
49040;BME280;36811;49.732;13.402;2023-02-22T03:37:52;97767.78;;;8.92;83.59
49040;BME280;36811;49.732;13.402;2023-02-22T03:40:37;97769.97;;;8.79;84.05
49040;BME280;36811;49.732;13.402;2023-02-22T03:43:12;97770.53;;;8.81;85.10
49040;BME280;36811;49.732;13.402;2023-02-22T03:45:41;97764.63;;;8.95;84.56
49040;BME280;36811;49.732;13.402;2023-02-22T03:48:22;97769.28;;;9.05;83.79
49040;BME280;36811;49.732;13.402;2023-02-22T03:50:49;97769.16;;;8.95;83.38
49040;BME280;36811;49.732;13.402;2023-02-22T03:53:17;97758.56;;;8.78;84.57
49040;BME280;36811;49.732;13.402;2023-02-22T03:55:46;97765.06;;;8.71;85.17
49040;BME280;36811;49.732;13.402;2023-02-22T03:58:17;97770.22;;;8.77;85.12
49040;BME280;36811;49.732;13.402;2023-02-22T04:00:46;97769.72;;;8.80;84.60
49040;BME280;36811;49.732;13.402;2023-02-22T04:03:19;97768.81;;;8.91;84.11
49040;BME280;36811;49.732;13.402;2023-02-22T04:05:44;97772.41;;;9.02;83.85
49040;BME280;36811;49.732;13.402;2023-02-22T04:08:10;97769.50;;;9.04;83.21
49040;BME280;36811;49.732;13.402;2023-02-22T04:10:36;97765.28;;;9.03;83.56
49040;BME280;36811;49.732;13.402;2023-02-22T04:13:03;97769.69;;;8.97;83.70
49040;BME280;36811;49.732;13.402;2023-02-22T04:15:31;97766.91;;;9.09;84.00
49040;BME280;36811;49.732;13.402;2023-02-22T04:17:58;97768.59;;;9.15;83.02
49040;BME280;36811;49.732;13.402;2023-02-22T04:20:24;97763.84;;;9.17;83.06
49040;BME280;36811;49.732;13.402;2023-02-22T04:22:54;97760.56;;;9.10;82.59
49040;BME280;36811;49.732;13.402;2023-02-22T04:25:21;97759.50;;;8.89;83.99
49040;BME280;36811;49.732;13.402;2023-02-22T04:27:48;97765.69;;;8.78;83.99
49040;BME280;36811;49.732;13.402;2023-02-22T04:30:17;97767.13;;;8.85;84.13
49040;BME280;36811;49.732;13.402;2023-02-22T04:32:43;97769.38;;;8.93;84.29
49040;BME280;36811;49.732;13.402;2023-02-22T04:35:09;97764.88;;;8.94;83.33
49040;BME280;36811;49.732;13.402;2023-02-22T04:37:35;97760.31;;;8.89;83.21
49040;BME280;36811;49.732;13.402;2023-02-22T04:40:03;97753.66;;;8.87;83.73
49040;BME280;36811;49.732;13.402;2023-02-22T04:42:33;97753.94;;;8.90;83.59
49040;BME280;36811;49.732;13.402;2023-02-22T04:44:59;97751.13;;;8.97;83.13
49040;BME280;36811;49.732;13.402;2023-02-22T04:47:25;97751.34;;;8.95;83.34
49040;BME280;36811;49.732;13.402;2023-02-22T04:49:50;97752.84;;;8.86;83.44
49040;BME280;36811;49.732;13.402;2023-02-22T04:52:16;97743.44;;;8.79;83.34
49040;BME280;36811;49.732;13.402;2023-02-22T04:54:42;97743.06;;;8.70;83.72
49040;BME280;36811;49.732;13.402;2023-02-22T04:57:08;97740.03;;;8.62;83.61
49040;BME280;36811;49.732;13.402;2023-02-22T04:59:34;97739.63;;;8.53;84.10
49040;BME280;36811;49.732;13.402;2023-02-22T05:01:59;97736.75;;;8.38;85.18
49040;BME280;36811;49.732;13.402;2023-02-22T05:04:25;97737.25;;;8.35;86.02
49040;BME280;36811;49.732;13.402;2023-02-22T05:06:51;97735.25;;;8.42;85.94
49040;BME280;36811;49.732;13.402;2023-02-22T05:09:18;97734.50;;;8.47;85.19
49040;BME280;36811;49.732;13.402;2023-02-22T05:11:44;97731.88;;;8.47;85.28
49040;BME280;36811;49.732;13.402;2023-02-22T05:14:09;97734.09;;;8.38;86.42
49040;BME280;36811;49.732;13.402;2023-02-22T05:16:35;97730.50;;;8.44;85.69
49040;BME280;36811;49.732;13.402;2023-02-22T05:19:01;97737.47;;;8.50;85.91
49040;BME280;36811;49.732;13.402;2023-02-22T05:21:27;97726.84;;;8.50;85.57
49040;BME280;36811;49.732;13.402;2023-02-22T05:23:53;97735.69;;;8.56;84.69
49040;BME280;36811;49.732;13.402;2023-02-22T05:26:18;97736.50;;;8.56;85.17
49040;BME280;36811;49.732;13.402;2023-02-22T05:28:44;97731.19;;;8.56;84.57
49040;BME280;36811;49.732;13.402;2023-02-22T05:31:09;97733.63;;;8.41;85.06
49040;BME280;36811;49.732;13.402;2023-02-22T05:33:35;97731.56;;;8.26;85.43
49040;BME280;36811;49.732;13.402;2023-02-22T05:36:01;97724.06;;;8.23;86.39
49040;BME280;36811;49.732;13.402;2023-02-22T05:38:26;97729.38;;;8.40;86.24
49040;BME280;36811;49.732;13.402;2023-02-22T05:40:52;97727.31;;;8.42;86.12
49040;BME280;36811;49.732;13.402;2023-02-22T05:43:18;97728.66;;;8.45;86.68
49040;BME280;36811;49.732;13.402;2023-02-22T05:45:44;97731.31;;;8.45;86.12
49040;BME280;36811;49.732;13.402;2023-02-22T05:48:10;97729.38;;;8.40;85.60
49040;BME280;36811;49.732;13.402;2023-02-22T05:50:37;97732.53;;;8.37;86.20
49040;BME280;36811;49.732;13.402;2023-02-22T05:53:03;97725.59;;;8.36;86.21
49040;BME280;36811;49.732;13.402;2023-02-22T05:55:30;97730.34;;;8.34;85.95
49040;BME280;36811;49.732;13.402;2023-02-22T05:57:56;97728.72;;;8.33;86.45
49040;BME280;36811;49.732;13.402;2023-02-22T06:00:28;97733.31;;;8.38;86.33
49040;BME280;36811;49.732;13.402;2023-02-22T06:02:59;97739.50;;;8.43;86.31
49040;BME280;36811;49.732;13.402;2023-02-22T06:05:25;97737.00;;;8.37;85.85
49040;BME280;36811;49.732;13.402;2023-02-22T06:07:52;97737.91;;;8.42;86.55
49040;BME280;36811;49.732;13.402;2023-02-22T06:10:18;97736.97;;;8.53;85.83
49040;BME280;36811;49.732;13.402;2023-02-22T06:12:46;97741.63;;;8.63;85.49
49040;BME280;36811;49.732;13.402;2023-02-22T06:15:14;97737.38;;;8.62;84.78
49040;BME280;36811;49.732;13.402;2023-02-22T06:17:40;97734.09;;;8.55;85.48
49040;BME280;36811;49.732;13.402;2023-02-22T06:20:08;97733.72;;;8.46;86.53
49040;BME280;36811;49.732;13.402;2023-02-22T06:22:34;97733.38;;;8.43;86.39
49040;BME280;36811;49.732;13.402;2023-02-22T06:25:02;97741.72;;;8.51;86.44
49040;BME280;36811;49.732;13.402;2023-02-22T06:27:32;97742.91;;;8.60;86.23
49040;BME280;36811;49.732;13.402;2023-02-22T06:29:59;97739.47;;;8.60;85.90
49040;BME280;36811;49.732;13.402;2023-02-22T06:32:24;97740.66;;;8.69;84.90
49040;BME280;36811;49.732;13.402;2023-02-22T06:34:51;97734.06;;;8.71;84.59
49040;BME280;36811;49.732;13.402;2023-02-22T06:37:16;97749.56;;;8.79;85.12
49040;BME280;36811;49.732;13.402;2023-02-22T06:39:42;97744.00;;;8.81;84.40
49040;BME280;36811;49.732;13.402;2023-02-22T06:42:07;97739.84;;;8.85;84.70
49040;BME280;36811;49.732;13.402;2023-02-22T06:44:33;97751.63;;;8.94;84.29
49040;BME280;36811;49.732;13.402;2023-02-22T06:46:59;97752.00;;;9.03;83.97
49040;BME280;36811;49.732;13.402;2023-02-22T06:49:25;97746.28;;;9.11;83.09
49040;BME280;36811;49.732;13.402;2023-02-22T06:51:53;97750.09;;;9.20;83.01
49040;BME280;36811;49.732;13.402;2023-02-22T06:54:19;97755.34;;;9.15;82.38
49040;BME280;36811;49.732;13.402;2023-02-22T06:56:45;97750.63;;;9.00;83.55
49040;BME280;36811;49.732;13.402;2023-02-22T06:59:11;97760.03;;;9.08;83.37
49040;BME280;36811;49.732;13.402;2023-02-22T07:01:40;97757.50;;;9.18;82.93
49040;BME280;36811;49.732;13.402;2023-02-22T07:04:06;97762.50;;;9.36;82.52
49040;BME280;36811;49.732;13.402;2023-02-22T07:06:32;97757.53;;;9.44;82.05
49040;BME280;36811;49.732;13.402;2023-02-22T07:08:58;97760.63;;;9.58;81.84
49040;BME280;36811;49.732;13.402;2023-02-22T07:11:23;97765.06;;;9.52;82.49
49040;BME280;36811;49.732;13.402;2023-02-22T07:13:49;97761.16;;;9.60;81.92
49040;BME280;36811;49.732;13.402;2023-02-22T07:16:15;97763.66;;;9.72;81.61
49040;BME280;36811;49.732;13.402;2023-02-22T07:18:40;97763.59;;;9.88;81.48
49040;BME280;36811;49.732;13.402;2023-02-22T07:21:06;97759.47;;;10.02;80.52
49040;BME280;36811;49.732;13.402;2023-02-22T07:23:32;97769.41;;;10.12;79.57
49040;BME280;36811;49.732;13.402;2023-02-22T07:26:02;97762.69;;;10.09;79.68
49040;BME280;36811;49.732;13.402;2023-02-22T07:28:30;97760.78;;;10.27;79.69
49040;BME280;36811;49.732;13.402;2023-02-22T07:30:56;97756.03;;;10.34;78.74
49040;BME280;36811;49.732;13.402;2023-02-22T07:33:23;97760.75;;;10.58;78.75
49040;BME280;36811;49.732;13.402;2023-02-22T07:35:49;97762.13;;;11.08;78.17
49040;BME280;36811;49.732;13.402;2023-02-22T07:38:18;97752.69;;;11.52;76.73
49040;BME280;36811;49.732;13.402;2023-02-22T07:40:44;97760.59;;;12.24;75.62
49040;BME280;36811;49.732;13.402;2023-02-22T07:45:41;97750.94;;;12.73;73.10
49040;BME280;36811;49.732;13.402;2023-02-22T07:48:07;97757.13;;;12.34;74.41
49040;BME280;36811;49.732;13.402;2023-02-22T07:50:34;97752.78;;;12.83;73.16
49040;BME280;36811;49.732;13.402;2023-02-22T07:53:02;97750.81;;;13.29;71.50
49040;BME280;36811;49.732;13.402;2023-02-22T07:55:30;97747.31;;;13.87;69.97
49040;BME280;36811;49.732;13.402;2023-02-22T07:57:59;97743.53;;;14.32;67.85
49040;BME280;36811;49.732;13.402;2023-02-22T08:00:36;97747.03;;;14.28;68.20
49040;BME280;36811;49.732;13.402;2023-02-22T08:03:06;97739.91;;;14.52;67.29
49040;BME280;36811;49.732;13.402;2023-02-22T08:05:35;97740.44;;;15.06;66.87
49040;BME280;36811;49.732;13.402;2023-02-22T08:08:01;97740.72;;;15.89;64.44
49040;BME280;36811;49.732;13.402;2023-02-22T08:10:27;97743.09;;;16.28;63.41
49040;BME280;36811;49.732;13.402;2023-02-22T08:12:54;97733.50;;;15.90;62.25
49040;BME280;36811;49.732;13.402;2023-02-22T08:17:53;97741.19;;;15.12;62.21
49040;BME280;36811;49.732;13.402;2023-02-22T08:20:20;97749.19;;;14.88;62.83
49040;BME280;36811;49.732;13.402;2023-02-22T08:22:47;97745.59;;;14.45;62.86
49040;BME280;36811;49.732;13.402;2023-02-22T08:25:16;97738.81;;;14.19;64.08
49040;BME280;36811;49.732;13.402;2023-02-22T08:27:42;97745.91;;;14.68;63.78
49040;BME280;36811;49.732;13.402;2023-02-22T08:30:21;97741.22;;;15.31;62.75
49040;BME280;36811;49.732;13.402;2023-02-22T08:32:48;97751.16;;;16.10;61.67
49040;BME280;36811;49.732;13.402;2023-02-22T08:35:15;97745.63;;;16.71;60.42
49040;BME280;36811;49.732;13.402;2023-02-22T08:37:53;97743.63;;;17.22;59.07
49040;BME280;36811;49.732;13.402;2023-02-22T08:40:21;97741.31;;;17.43;57.98
49040;BME280;36811;49.732;13.402;2023-02-22T08:42:48;97740.28;;;17.80;57.05
49040;BME280;36811;49.732;13.402;2023-02-22T08:45:14;97738.94;;;18.26;56.00
49040;BME280;36811;49.732;13.402;2023-02-22T08:47:41;97742.84;;;18.87;54.44
49040;BME280;36811;49.732;13.402;2023-02-22T08:50:14;97739.53;;;19.29;53.37
49040;BME280;36811;49.732;13.402;2023-02-22T08:52:41;97734.91;;;17.66;53.80
49040;BME280;36811;49.732;13.402;2023-02-22T08:55:07;97747.22;;;16.39;57.85
49040;BME280;36811;49.732;13.402;2023-02-22T08:57:32;97742.63;;;16.40;58.21
49040;BME280;36811;49.732;13.402;2023-02-22T08:59:58;97742.13;;;16.57;57.03
49040;BME280;36811;49.732;13.402;2023-02-22T09:02:24;97745.31;;;16.40;57.57
49040;BME280;36811;49.732;13.402;2023-02-22T09:04:50;97748.63;;;16.69;58.21
49040;BME280;36811;49.732;13.402;2023-02-22T09:07:16;97741.31;;;15.86;56.56
49040;BME280;36811;49.732;13.402;2023-02-22T09:09:43;97730.53;;;16.88;57.62
49040;BME280;36811;49.732;13.402;2023-02-22T09:12:09;97731.03;;;18.08;54.50
49040;BME280;36811;49.732;13.402;2023-02-22T09:14:35;97728.72;;;18.90;53.42
49040;BME280;36811;49.732;13.402;2023-02-22T09:17:01;97733.25;;;18.06;52.82
49040;BME280;36811;49.732;13.402;2023-02-22T09:19:26;97732.13;;;16.76;55.04
49040;BME280;36811;49.732;13.402;2023-02-22T09:21:53;97727.97;;;16.97;56.61
49040;BME280;36811;49.732;13.402;2023-02-22T09:24:20;97725.97;;;17.43;55.91
49040;BME280;36811;49.732;13.402;2023-02-22T09:26:47;97723.94;;;18.78;53.40
49040;BME280;36811;49.732;13.402;2023-02-22T09:29:18;97713.47;;;19.55;51.23
49040;BME280;36811;49.732;13.402;2023-02-22T09:31:47;97721.66;;;17.83;53.61
49040;BME280;36811;49.732;13.402;2023-02-22T09:34:15;97719.28;;;18.04;52.93
49040;BME280;36811;49.732;13.402;2023-02-22T09:36:42;97723.53;;;17.83;52.52
49040;BME280;36811;49.732;13.402;2023-02-22T09:39:09;97713.28;;;18.07;53.41
49040;BME280;36811;49.732;13.402;2023-02-22T09:47:18;97711.00;;;16.56;55.06
49040;BME280;36811;49.732;13.402;2023-02-22T09:50:06;97703.25;;;16.68;55.04
49040;BME280;36811;49.732;13.402;2023-02-22T09:57:51;97696.50;;;17.65;51.23
49040;BME280;36811;49.732;13.402;2023-02-22T10:00:35;97693.34;;;17.09;54.54
49040;BME280;36811;49.732;13.402;2023-02-22T10:03:16;97691.53;;;18.39;52.26
49040;BME280;36811;49.732;13.402;2023-02-22T10:05:53;97687.66;;;19.32;50.41
49040;BME280;36811;49.732;13.402;2023-02-22T10:08:24;97682.66;;;19.65;49.08
49040;BME280;36811;49.732;13.402;2023-02-22T10:11:03;97695.38;;;19.73;48.93
49040;BME280;36811;49.732;13.402;2023-02-22T10:16:21;97683.84;;;20.62;47.74
49040;BME280;36811;49.732;13.402;2023-02-22T10:27:19;97667.91;;;19.97;47.53
49040;BME280;36811;49.732;13.402;2023-02-22T10:29:54;97667.41;;;20.29;46.81
49040;BME280;36811;49.732;13.402;2023-02-22T10:32:28;97665.97;;;19.37;45.95
49040;BME280;36811;49.732;13.402;2023-02-22T10:34:59;97666.44;;;20.16;45.79
49040;BME280;36811;49.732;13.402;2023-02-22T10:37:31;97649.03;;;20.69;44.19
49040;BME280;36811;49.732;13.402;2023-02-22T10:40:14;97653.47;;;19.67;45.32
49040;BME280;36811;49.732;13.402;2023-02-22T10:42:50;97642.81;;;19.53;45.19
49040;BME280;36811;49.732;13.402;2023-02-22T10:45:28;97652.91;;;19.31;46.14
49040;BME280;36811;49.732;13.402;2023-02-22T10:47:58;97649.66;;;18.94;48.11
49040;BME280;36811;49.732;13.402;2023-02-22T10:50:27;97648.53;;;18.95;48.37
49040;BME280;36811;49.732;13.402;2023-02-22T10:52:54;97651.88;;;20.26;47.22
49040;BME280;36811;49.732;13.402;2023-02-22T10:55:20;97642.84;;;18.35;47.29
49040;BME280;36811;49.732;13.402;2023-02-22T10:57:48;97643.25;;;18.20;48.87
49040;BME280;36811;49.732;13.402;2023-02-22T11:02:57;97638.97;;;20.14;46.73
49040;BME280;36811;49.732;13.402;2023-02-22T11:05:27;97634.97;;;20.38;45.25
49040;BME280;36811;49.732;13.402;2023-02-22T11:10:56;97624.44;;;21.70;42.88
49040;BME280;36811;49.732;13.402;2023-02-22T11:15:51;97630.25;;;21.39;42.94
49040;BME280;36811;49.732;13.402;2023-02-22T11:18:27;97623.75;;;20.73;42.90
49040;BME280;36811;49.732;13.402;2023-02-22T11:21:02;97624.81;;;20.35;44.02
49040;BME280;36811;49.732;13.402;2023-02-22T11:23:29;97627.69;;;20.30;44.56
49040;BME280;36811;49.732;13.402;2023-02-22T11:26:07;97611.88;;;18.86;46.22
49040;BME280;36811;49.732;13.402;2023-02-22T11:28:35;97615.91;;;18.35;49.26
49040;BME280;36811;49.732;13.402;2023-02-22T11:31:14;97604.97;;;18.54;48.21
49040;BME280;36811;49.732;13.402;2023-02-22T11:33:59;97610.72;;;18.39;47.80
49040;BME280;36811;49.732;13.402;2023-02-22T11:36:37;97600.88;;;18.65;48.64
49040;BME280;36811;49.732;13.402;2023-02-22T11:41:46;97601.19;;;19.29;46.89
49040;BME280;36811;49.732;13.402;2023-02-22T11:44:24;97593.88;;;18.56;47.86
49040;BME280;36811;49.732;13.402;2023-02-22T11:46:51;97598.53;;;18.11;48.20
49040;BME280;36811;49.732;13.402;2023-02-22T11:49:31;97590.72;;;18.01;48.41
49040;BME280;36811;49.732;13.402;2023-02-22T11:52:23;97575.00;;;18.25;48.50
49040;BME280;36811;49.732;13.402;2023-02-22T11:58:12;97586.75;;;16.50;51.23
49040;BME280;36811;49.732;13.402;2023-02-22T12:01:00;97589.38;;;15.77;53.26
49040;BME280;36811;49.732;13.402;2023-02-22T12:08:56;97573.94;;;18.34;48.89
49040;BME280;36811;49.732;13.402;2023-02-22T12:11:34;97576.88;;;18.47;48.77
49040;BME280;36811;49.732;13.402;2023-02-22T12:17:06;97574.75;;;17.82;50.34
49040;BME280;36811;49.732;13.402;2023-02-22T12:22:29;97566.75;;;19.26;47.93
49040;BME280;36811;49.732;13.402;2023-02-22T12:27:53;97559.09;;;19.96;45.49
49040;BME280;36811;49.732;13.402;2023-02-22T12:30:25;97567.63;;;20.33;44.61
49040;BME280;36811;49.732;13.402;2023-02-22T12:32:57;97562.53;;;18.68;46.04
49040;BME280;36811;49.732;13.402;2023-02-22T12:35:32;97564.47;;;17.84;48.48
49040;BME280;36811;49.732;13.402;2023-02-22T12:38:22;97562.34;;;18.56;47.70
49040;BME280;36811;49.732;13.402;2023-02-22T12:43:50;97557.63;;;18.31;47.75
49040;BME280;36811;49.732;13.402;2023-02-22T12:52:13;97557.25;;;19.54;45.95
49040;BME280;36811;49.732;13.402;2023-02-22T13:00:13;97549.41;;;18.36;47.67
49040;BME280;36811;49.732;13.402;2023-02-22T13:05:33;97551.63;;;18.90;46.19
49040;BME280;36811;49.732;13.402;2023-02-22T13:08:04;97546.88;;;18.87;46.60
49040;BME280;36811;49.732;13.402;2023-02-22T13:21:51;97540.56;;;19.00;46.08
49040;BME280;36811;49.732;13.402;2023-02-22T13:24:42;97544.81;;;17.75;47.94
49040;BME280;36811;49.732;13.402;2023-02-22T13:27:17;97544.25;;;17.29;49.50
49040;BME280;36811;49.732;13.402;2023-02-22T13:29:48;97529.72;;;17.65;49.54
49040;BME280;36811;49.732;13.402;2023-02-22T13:35:34;97530.09;;;19.33;45.89
49040;BME280;36811;49.732;13.402;2023-02-22T13:38:22;97524.28;;;19.40;45.89
49040;BME280;36811;49.732;13.402;2023-02-22T13:41:16;97522.97;;;19.29;45.48
49040;BME280;36811;49.732;13.402;2023-02-22T13:47:04;97522.16;;;18.37;47.63
49040;BME280;36811;49.732;13.402;2023-02-22T13:52:33;97527.19;;;17.11;50.03
49040;BME280;36811;49.732;13.402;2023-02-22T13:55:05;97521.13;;;17.41;50.49
49040;BME280;36811;49.732;13.402;2023-02-22T13:57:46;97526.25;;;17.73;48.54
49040;BME280;36811;49.732;13.402;2023-02-22T14:02:59;97527.88;;;17.52;49.82
49040;BME280;36811;49.732;13.402;2023-02-22T14:10:57;97523.16;;;18.11;49.25
49040;BME280;36811;49.732;13.402;2023-02-22T14:13:28;97522.09;;;17.90;48.79
49040;BME280;36811;49.732;13.402;2023-02-22T14:18:41;97521.66;;;17.52;49.42
49040;BME280;36811;49.732;13.402;2023-02-22T14:21:12;97522.16;;;16.96;51.46
49040;BME280;36811;49.732;13.402;2023-02-22T14:23:42;97528.78;;;16.08;52.40
49040;BME280;36811;49.732;13.402;2023-02-22T14:31:17;97518.59;;;15.92;53.83
49040;BME280;36811;49.732;13.402;2023-02-22T14:34:00;97514.06;;;16.19;52.82
49040;BME280;36811;49.732;13.402;2023-02-22T14:44:59;97512.06;;;16.25;52.57
49040;BME280;36811;49.732;13.402;2023-02-22T14:47:28;97515.03;;;15.96;53.75
49040;BME280;36811;49.732;13.402;2023-02-22T14:50:04;97516.56;;;16.16;53.34
49040;BME280;36811;49.732;13.402;2023-02-22T14:52:34;97515.63;;;15.93;54.16
49040;BME280;36811;49.732;13.402;2023-02-22T14:55:27;97520.78;;;15.76;53.82
49040;BME280;36811;49.732;13.402;2023-02-22T14:58:12;97505.59;;;15.34;55.26
49040;BME280;36811;49.732;13.402;2023-02-22T15:00:45;97505.91;;;15.14;56.00
49040;BME280;36811;49.732;13.402;2023-02-22T15:03:25;97512.59;;;14.79;56.06
49040;BME280;36811;49.732;13.402;2023-02-22T15:06:06;97518.03;;;14.74;56.58
49040;BME280;36811;49.732;13.402;2023-02-22T15:08:43;97513.38;;;14.61;56.92
49040;BME280;36811;49.732;13.402;2023-02-22T15:11:39;97506.75;;;14.77;56.75
49040;BME280;36811;49.732;13.402;2023-02-22T15:14:37;97506.09;;;14.43;57.27
49040;BME280;36811;49.732;13.402;2023-02-22T15:17:12;97504.47;;;14.47;57.70
49040;BME280;36811;49.732;13.402;2023-02-22T15:19:41;97501.06;;;14.60;57.43
49040;BME280;36811;49.732;13.402;2023-02-22T15:22:19;97514.16;;;14.61;57.08
49040;BME280;36811;49.732;13.402;2023-02-22T15:25:00;97512.09;;;14.30;57.95
49040;BME280;36811;49.732;13.402;2023-02-22T15:27:27;97506.47;;;14.08;58.41
49040;BME280;36811;49.732;13.402;2023-02-22T15:30:03;97506.97;;;14.10;58.69
49040;BME280;36811;49.732;13.402;2023-02-22T15:32:38;97508.47;;;14.21;58.27
49040;BME280;36811;49.732;13.402;2023-02-22T15:35:15;97507.59;;;14.01;58.70
49040;BME280;36811;49.732;13.402;2023-02-22T15:37:43;97509.56;;;13.96;59.08